Time;durP1;ratioP1;P1;durP2;ratioP2;P2;SDS_P1;SDS_P2;PMS_P1;PMS_P2;Temp;Humidity;BMP_temperature;BMP_pressure;BME280_temperature;BME280_humidity;BME280_pressure;Samples;Min_cycle;Max_cycle;Signal;HPM_P1;HPM_P2
2021/10/26 00:00:06;;;;;;;;;;;12.00;99.90;;;;;;1793294;78;20213;-74
2021/10/26 00:02:33;;;;;;;;;;;12.00;99.90;;;;;;1795775;78;20504;-74
2021/10/26 00:05:00;;;;;;;;;;;11.90;99.90;;;;;;1795553;78;20209;-74
2021/10/26 00:07:26;;;;;;;;;;;11.90;99.90;;;;;;1798229;78;20554;-74
2021/10/26 00:09:53;;;;;;;;;;;11.90;99.90;;;;;;1796903;78;20178;-74
2021/10/26 00:12:20;;;;;;;;;;;11.90;99.90;;;;;;1790665;78;20186;-73
2021/10/26 00:14:48;;;;;;;;;;;11.90;99.90;;;;;;1798530;78;20463;-74
2021/10/26 00:17:15;;;;;;;;;;;11.90;99.90;;;;;;1801207;78;20212;-74
2021/10/26 00:19:42;;;;;;;;;;;11.90;99.90;;;;;;1790048;78;20898;-74
2021/10/26 00:22:09;;;;;;;;;;;11.80;99.90;;;;;;1798852;78;20205;-74
2021/10/26 00:24:36;;;;;;;;;;;11.90;99.90;;;;;;1801762;78;20470;-74
2021/10/26 00:27:03;;;;;;;;;;;11.90;99.90;;;;;;1792798;78;20131;-74
2021/10/26 00:29:30;;;;;;;;;;;11.80;99.90;;;;;;1794200;78;20558;-75
2021/10/26 00:31:57;;;;;;;;;;;11.80;99.90;;;;;;1794081;78;20233;-74
2021/10/26 00:34:23;;;;;;;;;;;11.80;99.90;;;;;;1797265;78;20231;-74
2021/10/26 00:36:50;;;;;;;;;;;11.80;99.90;;;;;;1791264;78;20178;-75
2021/10/26 00:39:17;;;;;;;;;;;11.80;99.90;;;;;;1797238;78;20227;-74
2021/10/26 00:41:44;;;;;;;;;;;11.80;99.90;;;;;;1802044;78;20218;-73
2021/10/26 00:44:12;;;;;;;;;;;11.80;99.90;;;;;;1797384;78;20166;-73
2021/10/26 00:46:39;;;;;;;;;;;11.90;99.90;;;;;;1798876;78;20340;-73
2021/10/26 00:49:09;;;;;;;;;;;11.80;99.90;;;;;;1798117;78;20908;-74
2021/10/26 00:51:35;;;;;;;;;;;11.80;99.90;;;;;;1798215;79;20136;-74
2021/10/26 00:54:03;;;;;;;;;;;11.70;99.90;;;;;;1800497;78;20184;-74
2021/10/26 00:56:30;;;;;;;;;;;11.70;99.90;;;;;;1794652;78;20192;-73
2021/10/26 00:58:57;;;;;;;;;;;11.80;99.90;;;;;;1792701;78;20124;-74
2021/10/26 01:01:24;;;;;;;;;;;11.80;99.90;;;;;;1793227;78;20236;-74
2021/10/26 01:03:51;;;;;;;;;;;11.90;99.90;;;;;;1797002;78;20265;-73
2021/10/26 01:06:19;;;;;;;;;;;11.80;99.90;;;;;;1793031;78;20273;-72
2021/10/26 01:08:47;;;;;;;;;;;11.80;99.90;;;;;;1792436;78;20253;-72
2021/10/26 01:11:14;;;;;;;;;;;11.80;99.90;;;;;;1794240;78;20219;-72
2021/10/26 01:13:42;;;;;;;;;;;11.80;99.90;;;;;;1790774;78;20178;-72
2021/10/26 01:16:09;;;;;;;;;;;11.80;99.90;;;;;;1792784;78;20186;-72
2021/10/26 01:18:36;;;;;;;;;;;11.80;99.90;;;;;;1791455;78;20125;-72
2021/10/26 01:21:03;;;;;;;;;;;11.80;99.90;;;;;;1790726;78;20206;-72
2021/10/26 01:23:30;;;;;;;;;;;11.90;99.90;;;;;;1796741;78;20177;-72
2021/10/26 01:25:56;;;;;;;;;;;11.90;99.90;;;;;;1793820;78;20221;-72
2021/10/26 01:28:23;;;;;;;;;;;11.90;99.90;;;;;;1793875;78;20181;-72
2021/10/26 01:30:50;;;;;;;;;;;11.90;99.90;;;;;;1792114;78;20639;-72
2021/10/26 01:33:17;;;;;;;;;;;11.90;99.90;;;;;;1798632;78;20190;-73
2021/10/26 01:35:44;;;;;;;;;;;11.90;99.90;;;;;;1796707;78;20135;-72
2021/10/26 01:38:11;;;;;;;;;;;11.90;99.90;;;;;;1791178;78;20213;-72
2021/10/26 01:40:38;;;;;;;;;;;11.80;99.90;;;;;;1800514;77;20223;-73
2021/10/26 01:43:06;;;;;;;;;;;11.90;99.90;;;;;;1803668;77;20455;-72
2021/10/26 01:45:33;;;;;;;;;;;11.90;99.90;;;;;;1789892;78;20313;-72
2021/10/26 01:48:00;;;;;;;;;;;11.90;99.90;;;;;;1795334;78;20194;-72
2021/10/26 01:50:26;;;;;;;;;;;12.00;99.90;;;;;;1794610;78;20129;-72
2021/10/26 01:52:54;;;;;;;;;;;12.00;99.90;;;;;;1795962;78;20264;-72
2021/10/26 01:55:21;;;;;;;;;;;12.00;99.90;;;;;;1794013;78;20256;-71
2021/10/26 01:57:48;;;;;;;;;;;11.90;99.90;;;;;;1803137;78;20191;-72
2021/10/26 02:00:18;;;;;;;;;;;11.90;99.90;;;;;;1801090;77;20168;-72
2021/10/26 02:02:44;;;;;;;;;;;11.90;99.90;;;;;;1792093;78;20208;-72
2021/10/26 02:05:11;;;;;;;;;;;11.90;99.90;;;;;;1801173;78;20440;-72
2021/10/26 02:07:37;;;;;;;;;;;12.00;99.90;;;;;;1794452;78;20258;-72
2021/10/26 02:10:04;;;;;;;;;;;12.00;99.90;;;;;;1794574;78;20169;-73
2021/10/26 02:12:31;;;;;;;;;;;11.90;99.90;;;;;;1792815;78;20462;-72
2021/10/26 02:14:58;;;;;;;;;;;12.00;99.90;;;;;;1795841;78;20205;-73
2021/10/26 02:17:25;;;;;;;;;;;12.00;99.90;;;;;;1795460;78;20164;-73
2021/10/26 02:19:52;;;;;;;;;;;12.00;99.90;;;;;;1803374;78;20187;-73
2021/10/26 02:22:19;;;;;;;;;;;12.00;99.90;;;;;;1796680;78;20487;-72
2021/10/26 02:24:45;;;;;;;;;;;12.00;99.90;;;;;;1795369;78;20178;-73
2021/10/26 02:27:12;;;;;;;;;;;12.10;99.90;;;;;;1798566;78;20173;-74
2021/10/26 02:29:39;;;;;;;;;;;12.10;99.90;;;;;;1795233;78;20281;-74
2021/10/26 02:32:06;;;;;;;;;;;12.10;99.90;;;;;;1802372;78;20188;-74
2021/10/26 02:34:33;;;;;;;;;;;12.10;99.90;;;;;;1793258;78;20719;-73
2021/10/26 02:37:00;;;;;;;;;;;12.10;99.90;;;;;;1800310;78;20214;-74
2021/10/26 02:39:27;;;;;;;;;;;12.00;99.90;;;;;;1801700;78;20179;-73
2021/10/26 02:41:54;;;;;;;;;;;12.00;99.90;;;;;;1802949;78;20521;-73
2021/10/26 02:44:20;;;;;;;;;;;12.10;99.90;;;;;;1802784;78;20197;-73
2021/10/26 02:46:47;;;;;;;;;;;12.10;99.90;;;;;;1800105;78;20401;-73
2021/10/26 02:49:14;;;;;;;;;;;12.10;99.90;;;;;;1803985;78;20260;-73
2021/10/26 02:51:41;;;;;;;;;;;12.10;99.90;;;;;;1793665;78;20127;-73
2021/10/26 02:54:09;;;;;;;;;;;12.00;99.90;;;;;;1798099;78;20416;-73
2021/10/26 02:56:38;;;;;;;;;;;12.00;99.90;;;;;;1794735;78;21029;-73
2021/10/26 02:59:04;;;;;;;;;;;12.00;99.90;;;;;;1792574;78;20125;-73
2021/10/26 03:01:31;;;;;;;;;;;11.90;99.90;;;;;;1792425;78;20223;-72
2021/10/26 03:03:58;;;;;;;;;;;11.90;99.90;;;;;;1796850;78;20129;-73
2021/10/26 03:06:25;;;;;;;;;;;12.00;99.90;;;;;;1792518;78;20193;-73
2021/10/26 03:08:52;;;;;;;;;;;12.00;99.90;;;;;;1791954;78;20174;-73
2021/10/26 03:11:19;;;;;;;;;;;12.00;99.90;;;;;;1792867;78;20234;-73
2021/10/26 03:13:45;;;;;;;;;;;12.00;99.90;;;;;;1792541;78;20213;-73
2021/10/26 03:16:12;;;;;;;;;;;11.90;99.90;;;;;;1794636;78;20129;-73
2021/10/26 03:18:39;;;;;;;;;;;12.00;99.90;;;;;;1793215;78;20468;-73
2021/10/26 03:21:06;;;;;;;;;;;12.00;99.90;;;;;;1794644;78;20122;-73
2021/10/26 03:23:33;;;;;;;;;;;11.90;99.90;;;;;;1793927;78;20397;-73
2021/10/26 03:26:00;;;;;;;;;;;11.90;99.90;;;;;;1796844;78;20227;-73
2021/10/26 03:28:27;;;;;;;;;;;12.00;99.90;;;;;;1794611;78;20214;-73
2021/10/26 03:30:54;;;;;;;;;;;12.10;99.90;;;;;;1799505;78;20229;-73
2021/10/26 03:33:21;;;;;;;;;;;12.10;99.90;;;;;;1792650;78;20216;-74
2021/10/26 03:35:50;;;;;;;;;;;12.00;99.90;;;;;;1799372;77;20452;-73
2021/10/26 03:38:16;;;;;;;;;;;12.00;99.90;;;;;;1799422;78;20182;-73
2021/10/26 03:40:43;;;;;;;;;;;12.00;99.90;;;;;;1795031;78;20163;-73
2021/10/26 03:43:10;;;;;;;;;;;12.00;99.90;;;;;;1794264;78;20203;-73
2021/10/26 03:45:37;;;;;;;;;;;12.00;99.90;;;;;;1819843;75;20218;-72
2021/10/26 03:48:04;;;;;;;;;;;12.00;99.90;;;;;;1850907;76;20255;-72
2021/10/26 03:50:31;;;;;;;;;;;12.00;99.90;;;;;;1853637;76;20223;-72
2021/10/26 03:52:58;;;;;;;;;;;12.00;99.90;;;;;;1858994;76;20462;-72
2021/10/26 03:55:25;;;;;;;;;;;12.00;99.90;;;;;;1849749;76;20112;-72
2021/10/26 03:57:52;;;;;;;;;;;11.90;99.90;;;;;;1851492;77;20185;-72
2021/10/26 04:00:19;;;;;;;;;;;11.90;99.90;;;;;;1855939;76;20124;-72
2021/10/26 04:02:48;;;;;;;;;;;11.80;99.90;;;;;;1864461;75;20238;-71
2021/10/26 04:05:33;;;;;;;;;;;11.80;99.90;;;;;;1864888;76;20165;-73
2021/10/26 04:07:58;;;;;;;;;;;11.90;99.90;;;;;;1833890;76;20233;-72
2021/10/26 04:10:42;;;;;;;;;;;11.90;99.90;;;;;;1834536;76;20196;-73
2021/10/26 04:13:02;;;;;;;;;;;11.90;99.90;;;;;;1850679;76;20477;-74
2021/10/26 04:15:30;;;;;;;;;;;11.90;99.90;;;;;;1853543;75;20331;-73
2021/10/26 04:17:57;;;;;;;;;;;11.90;99.90;;;;;;1835742;77;20206;-73
2021/10/26 04:20:23;;;;;;;;;;;11.70;99.90;;;;;;1851094;77;20157;-73
2021/10/26 04:22:50;;;;;;;;;;;11.80;99.90;;;;;;1848781;77;20181;-72
2021/10/26 04:25:17;;;;;;;;;;;11.80;99.90;;;;;;1849915;77;20205;-73
2021/10/26 04:27:44;;;;;;;;;;;11.80;99.90;;;;;;1852137;77;20174;-71
2021/10/26 04:30:11;;;;;;;;;;;11.80;99.90;;;;;;1860241;76;20206;-73
2021/10/26 04:32:39;;;;;;;;;;;11.80;99.90;;;;;;1856605;75;20154;-72
2021/10/26 04:35:06;;;;;;;;;;;11.80;99.90;;;;;;1860473;76;20209;-73
2021/10/26 04:37:33;;;;;;;;;;;11.80;99.90;;;;;;1852689;77;20530;-73
2021/10/26 04:39:59;;;;;;;;;;;11.80;99.90;;;;;;1849949;77;20194;-73
2021/10/26 04:42:27;;;;;;;;;;;11.80;99.90;;;;;;1848912;77;20393;-73
2021/10/26 04:44:54;;;;;;;;;;;11.80;99.90;;;;;;1851203;76;20753;-74
2021/10/26 04:47:22;;;;;;;;;;;11.80;99.90;;;;;;1859099;76;20115;-74
2021/10/26 04:49:49;;;;;;;;;;;11.80;99.90;;;;;;1852960;76;20247;-71
2021/10/26 04:52:16;;;;;;;;;;;11.90;99.90;;;;;;1859160;76;20187;-73
2021/10/26 04:54:43;;;;;;;;;;;11.80;99.90;;;;;;1852257;75;20230;-71
2021/10/26 04:57:10;;;;;;;;;;;11.80;99.90;;;;;;1859180;76;20217;-73
2021/10/26 04:59:37;;;;;;;;;;;11.80;99.90;;;;;;1859438;76;20126;-74
2021/10/26 05:02:04;;;;;;;;;;;11.70;99.90;;;;;;1859557;76;20168;-74
2021/10/26 05:04:31;;;;;;;;;;;11.80;99.90;;;;;;1859173;77;20120;-74
2021/10/26 05:06:58;;;;;;;;;;;11.80;99.90;;;;;;1860624;77;20187;-72
2021/10/26 05:09:25;;;;;;;;;;;11.80;99.90;;;;;;1854647;77;20208;-73
2021/10/26 05:11:51;;;;;;;;;;;11.80;99.90;;;;;;1860073;77;20150;-72
2021/10/26 05:14:18;;;;;;;;;;;11.80;99.90;;;;;;1857672;77;20187;-72
2021/10/26 05:16:46;;;;;;;;;;;11.70;99.90;;;;;;1858040;77;20176;-73
2021/10/26 05:19:13;;;;;;;;;;;11.80;99.90;;;;;;1862108;75;20177;-74
2021/10/26 05:21:40;;;;;;;;;;;11.80;99.90;;;;;;1867065;75;20154;-74
2021/10/26 05:24:08;;;;;;;;;;;11.80;99.90;;;;;;1857484;77;20186;-74
2021/10/26 05:26:35;;;;;;;;;;;11.80;99.90;;;;;;1858971;77;20223;-74
2021/10/26 05:29:02;;;;;;;;;;;11.80;99.90;;;;;;1858171;76;20160;-74
2021/10/26 05:31:29;;;;;;;;;;;11.80;99.90;;;;;;1859702;77;20291;-73
2021/10/26 05:33:56;;;;;;;;;;;11.90;99.90;;;;;;1861404;75;20210;-73
2021/10/26 05:36:23;;;;;;;;;;;11.80;99.90;;;;;;1856720;75;20181;-72
2021/10/26 05:38:51;;;;;;;;;;;11.90;99.90;;;;;;1864768;75;20430;-73
2021/10/26 05:41:18;;;;;;;;;;;11.80;99.90;;;;;;1860707;75;20125;-72
2021/10/26 05:43:44;;;;;;;;;;;11.80;99.90;;;;;;1861553;76;20231;-72
2021/10/26 05:46:11;;;;;;;;;;;11.70;99.90;;;;;;1857967;76;20155;-72
2021/10/26 05:48:38;;;;;;;;;;;11.80;99.90;;;;;;1857848;76;20847;-72
2021/10/26 05:51:05;;;;;;;;;;;11.90;99.90;;;;;;1860918;75;20191;-72
2021/10/26 05:53:32;;;;;;;;;;;11.90;99.90;;;;;;1859271;77;20192;-72
2021/10/26 05:55:59;;;;;;;;;;;11.80;99.90;;;;;;1857297;75;20273;-72
2021/10/26 05:58:26;;;;;;;;;;;11.80;99.90;;;;;;1854045;77;20157;-73
2021/10/26 06:00:52;;;;;;;;;;;11.80;99.90;;;;;;1855946;77;20169;-72
2021/10/26 06:03:20;;;;;;;;;;;11.80;99.90;;;;;;1858170;76;20281;-72
2021/10/26 06:05:46;;;;;;;;;;;11.80;99.90;;;;;;1859235;77;20625;-70
2021/10/26 06:08:13;;;;;;;;;;;11.80;99.90;;;;;;1855999;77;20510;-72
2021/10/26 06:10:46;;;;;;;;;;;11.80;99.90;;;;;;1859884;75;20131;-72
2021/10/26 06:13:11;;;;;;;;;;;11.80;99.90;;;;;;1853903;77;20155;-71
2021/10/26 06:15:37;;;;;;;;;;;11.90;99.90;;;;;;1861135;75;20192;-72
2021/10/26 06:18:04;;;;;;;;;;;11.80;99.90;;;;;;1858684;77;20156;-72
2021/10/26 06:20:31;;;;;;;;;;;11.80;99.90;;;;;;1857588;77;20501;-72
2021/10/26 06:22:58;;;;;;;;;;;11.80;99.90;;;;;;1860477;77;20180;-72
2021/10/26 06:25:26;;;;;;;;;;;11.80;99.90;;;;;;1859682;75;20575;-72
2021/10/26 06:27:52;;;;;;;;;;;11.80;99.90;;;;;;1858282;77;20244;-72
2021/10/26 06:30:19;;;;;;;;;;;11.90;99.90;;;;;;1857255;77;20221;-72
2021/10/26 06:32:46;;;;;;;;;;;11.90;99.90;;;;;;1858535;76;20183;-73
2021/10/26 06:35:13;;;;;;;;;;;11.90;99.90;;;;;;1860130;77;20129;-72
2021/10/26 06:37:44;;;;;;;;;;;12.00;99.90;;;;;;1861144;77;20703;-72
2021/10/26 06:40:08;;;;;;;;;;;12.00;99.90;;;;;;1855281;76;20183;-72
2021/10/26 06:42:35;;;;;;;;;;;12.00;99.90;;;;;;1856231;77;20165;-72
2021/10/26 06:45:02;;;;;;;;;;;12.00;99.90;;;;;;1857512;77;20196;-70
2021/10/26 06:47:29;;;;;;;;;;;11.90;99.90;;;;;;1859051;77;20116;-71
2021/10/26 06:49:56;;;;;;;;;;;12.00;99.90;;;;;;1861051;77;20180;-72
2021/10/26 06:52:24;;;;;;;;;;;12.00;99.90;;;;;;1860030;77;20172;-72
2021/10/26 06:54:51;;;;;;;;;;;12.10;99.90;;;;;;1862643;76;20231;-73
2021/10/26 06:57:20;;;;;;;;;;;12.10;99.90;;;;;;1853390;77;20189;-72
2021/10/26 06:59:47;;;;;;;;;;;12.10;99.90;;;;;;1858418;77;20160;-72
2021/10/26 07:02:14;;;;;;;;;;;12.20;99.90;;;;;;1860017;77;20187;-71
2021/10/26 07:04:41;;;;;;;;;;;12.10;99.90;;;;;;1859895;77;20195;-71
2021/10/26 07:07:07;;;;;;;;;;;12.10;99.90;;;;;;1859268;76;20114;-70
2021/10/26 07:09:34;;;;;;;;;;;12.10;99.90;;;;;;1857579;76;20185;-72
2021/10/26 07:12:01;;;;;;;;;;;12.10;99.90;;;;;;1859890;77;20174;-72
2021/10/26 07:14:28;;;;;;;;;;;12.20;99.90;;;;;;1854799;77;20550;-73
2021/10/26 07:16:55;;;;;;;;;;;12.20;99.90;;;;;;1860688;77;20186;-72
2021/10/26 07:19:22;;;;;;;;;;;12.30;99.90;;;;;;1861112;76;20119;-72
2021/10/26 07:21:50;;;;;;;;;;;12.20;99.90;;;;;;1858796;77;20169;-72
2021/10/26 07:24:17;;;;;;;;;;;12.20;99.90;;;;;;1856863;77;20180;-73
2021/10/26 07:26:44;;;;;;;;;;;12.30;99.90;;;;;;1856288;77;20152;-72
2021/10/26 07:29:11;;;;;;;;;;;12.30;99.90;;;;;;1858782;77;20171;-72
2021/10/26 07:31:38;;;;;;;;;;;12.30;99.90;;;;;;1856440;77;20538;-72
2021/10/26 07:34:05;;;;;;;;;;;12.30;99.90;;;;;;1857348;76;20205;-72
2021/10/26 07:36:41;;;;;;;;;;;12.30;99.90;;;;;;1860521;76;20121;-72
2021/10/26 07:39:03;;;;;;;;;;;12.30;99.90;;;;;;1856482;75;20225;-72
2021/10/26 07:41:29;;;;;;;;;;;12.30;99.90;;;;;;1853769;75;20217;-71
2021/10/26 07:43:56;;;;;;;;;;;12.40;99.90;;;;;;1859747;77;20216;-72
2021/10/26 07:46:23;;;;;;;;;;;12.30;99.90;;;;;;1858167;77;20158;-71
2021/10/26 07:48:49;;;;;;;;;;;12.30;99.90;;;;;;1860474;76;20178;-72
2021/10/26 07:51:16;;;;;;;;;;;12.30;99.90;;;;;;1857706;77;20235;-72
2021/10/26 07:53:43;;;;;;;;;;;12.30;99.90;;;;;;1858949;76;20169;-72
2021/10/26 07:56:10;;;;;;;;;;;12.30;99.90;;;;;;1856778;76;20211;-72
2021/10/26 07:58:40;;;;;;;;;;;12.40;99.90;;;;;;1859713;77;20528;-71
2021/10/26 08:01:07;;;;;;;;;;;12.40;99.90;;;;;;1860452;77;20132;-72
2021/10/26 08:03:34;;;;;;;;;;;12.40;99.90;;;;;;1856481;77;20171;-72
2021/10/26 08:06:01;;;;;;;;;;;12.40;99.90;;;;;;1860180;77;20184;-72
2021/10/26 08:08:28;;;;;;;;;;;12.40;99.90;;;;;;1862074;76;20214;-71
2021/10/26 08:10:55;;;;;;;;;;;12.50;99.90;;;;;;1856180;77;20382;-72
2021/10/26 08:13:21;;;;;;;;;;;12.40;99.90;;;;;;1855171;77;20176;-71
2021/10/26 08:15:48;;;;;;;;;;;12.40;99.90;;;;;;1857172;77;20192;-72
2021/10/26 08:18:17;;;;;;;;;;;12.50;99.90;;;;;;1860877;75;20176;-72
2021/10/26 08:20:43;;;;;;;;;;;12.50;99.90;;;;;;1859153;76;20188;-71
2021/10/26 08:23:11;;;;;;;;;;;12.50;99.90;;;;;;1855755;77;20168;-72
2021/10/26 08:25:40;;;;;;;;;;;12.50;99.90;;;;;;1858401;77;20129;-72
2021/10/26 08:28:12;;;;;;;;;;;12.50;99.90;;;;;;1852951;77;20182;-72
2021/10/26 08:30:46;;;;;;;;;;;12.50;99.90;;;;;;1856917;77;20174;-72
2021/10/26 08:35:50;;;;;;;;;;;12.60;99.90;;;;;;1857880;76;20455;-72
2021/10/26 08:38:17;;;;;;;;;;;12.60;99.90;;;;;;1861116;77;20129;-72
2021/10/26 08:40:48;;;;;;;;;;;12.60;99.90;;;;;;1861419;77;20304;-72
2021/10/26 08:43:18;;;;;;;;;;;12.60;99.90;;;;;;1855663;77;20193;-71
2021/10/26 08:45:51;;;;;;;;;;;12.60;99.90;;;;;;1854597;76;20709;-72
2021/10/26 08:48:17;;;;;;;;;;;12.60;99.90;;;;;;1854083;77;20208;-72
2021/10/26 08:50:45;;;;;;;;;;;12.60;99.90;;;;;;1858893;77;20257;-72
2021/10/26 08:53:12;;;;;;;;;;;12.70;99.90;;;;;;1857966;77;20125;-71
2021/10/26 08:55:39;;;;;;;;;;;12.70;99.90;;;;;;1859692;77;20178;-71
2021/10/26 08:58:07;;;;;;;;;;;12.70;99.90;;;;;;1854118;77;20202;-72
2021/10/26 09:00:35;;;;;;;;;;;12.70;99.90;;;;;;1854175;77;20122;-71
2021/10/26 09:03:03;;;;;;;;;;;12.70;99.90;;;;;;1859607;76;20244;-71
2021/10/26 09:05:31;;;;;;;;;;;12.80;99.90;;;;;;1856846;76;20158;-72
2021/10/26 09:08:02;;;;;;;;;;;12.80;99.90;;;;;;1860348;75;20172;-71
2021/10/26 09:10:33;;;;;;;;;;;12.80;99.90;;;;;;1858210;77;20175;-72
2021/10/26 09:18:34;;;;;;;;;;;12.90;99.90;;;;;;1857927;77;20171;-72
2021/10/26 09:21:01;;;;;;;;;;;12.90;99.90;;;;;;1861174;76;20446;-70
2021/10/26 09:23:28;;;;;;;;;;;12.90;99.90;;;;;;1860453;76;20624;-72
2021/10/26 09:25:57;;;;;;;;;;;12.90;99.90;;;;;;1857211;77;20155;-72
2021/10/26 09:28:24;;;;;;;;;;;12.90;99.90;;;;;;1861416;76;20230;-72
2021/10/26 09:31:01;;;;;;;;;;;12.90;99.90;;;;;;1857588;77;20385;-71
2021/10/26 09:33:32;;;;;;;;;;;12.90;99.90;;;;;;1859095;77;20180;-71
2021/10/26 09:36:17;;;;;;;;;;;13.00;99.90;;;;;;1861945;76;20174;-72
2021/10/26 09:38:44;;;;;;;;;;;13.00;99.90;;;;;;1861463;75;20164;-71
2021/10/26 09:41:10;;;;;;;;;;;13.10;99.90;;;;;;1855075;77;20154;-72
2021/10/26 09:43:37;;;;;;;;;;;13.20;99.90;;;;;;1859535;77;20160;-72
2021/10/26 09:46:24;;;;;;;;;;;13.10;99.90;;;;;;1860364;77;20188;-74
2021/10/26 09:48:51;;;;;;;;;;;13.20;99.90;;;;;;1825656;78;20131;-72
2021/10/26 09:51:21;;;;;;;;;;;13.20;99.90;;;;;;1799152;79;20243;-72
2021/10/26 09:53:55;;;;;;;;;;;13.20;99.90;;;;;;1827015;78;20176;-72
2021/10/26 09:56:22;;;;;;;;;;;13.30;99.90;;;;;;1797180;78;20819;-71
2021/10/26 09:58:48;;;;;;;;;;;13.30;99.90;;;;;;1828549;78;20168;-72
2021/10/26 10:01:21;;;;;;;;;;;13.30;99.90;;;;;;1832631;78;20376;-72
2021/10/26 10:03:47;;;;;;;;;;;13.30;99.90;;;;;;1831077;77;20216;-72
2021/10/26 10:06:14;;;;;;;;;;;13.30;99.90;;;;;;1830235;78;20111;-71
2021/10/26 10:08:42;;;;;;;;;;;13.20;99.90;;;;;;1829444;78;20212;-72
2021/10/26 10:11:17;;;;;;;;;;;13.30;99.90;;;;;;1833830;78;20196;-72
2021/10/26 10:13:39;;;;;;;;;;;13.40;99.90;;;;;;1832477;77;20178;-72
2021/10/26 10:16:08;;;;;;;;;;;13.40;99.90;;;;;;1831722;78;20197;-72
2021/10/26 10:18:35;;;;;;;;;;;13.40;99.90;;;;;;1831804;76;20182;-72
2021/10/26 10:21:02;;;;;;;;;;;13.50;99.90;;;;;;1835890;78;20133;-72
2021/10/26 10:23:29;;;;;;;;;;;13.60;99.90;;;;;;1831481;78;20219;-72
2021/10/26 10:25:57;;;;;;;;;;;13.60;99.90;;;;;;1834887;75;20195;-72
2021/10/26 10:28:28;;;;;;;;;;;13.50;99.90;;;;;;1838243;78;20143;-72
2021/10/26 10:30:58;;;;;;;;;;;13.60;99.90;;;;;;1838274;76;20113;-72
2021/10/26 10:33:24;;;;;;;;;;;13.50;99.90;;;;;;1830806;77;20189;-71
2021/10/26 10:35:54;;;;;;;;;;;13.50;99.90;;;;;;1830496;78;20148;-72
2021/10/26 10:38:21;;;;;;;;;;;13.40;99.90;;;;;;1833368;76;20253;-72
2021/10/26 10:40:48;;;;;;;;;;;13.60;99.90;;;;;;1831773;78;20132;-72
2021/10/26 10:43:17;;;;;;;;;;;13.60;99.90;;;;;;1829480;78;20225;-72
2021/10/26 10:45:45;;;;;;;;;;;13.70;99.90;;;;;;1827366;78;20186;-72
2021/10/26 10:48:13;;;;;;;;;;;13.60;99.90;;;;;;1834501;76;20185;-72
2021/10/26 10:50:41;;;;;;;;;;;13.50;99.90;;;;;;1825750;76;20182;-72
2021/10/26 10:53:09;;;;;;;;;;;13.60;99.90;;;;;;1835048;78;20180;-72
2021/10/26 10:55:37;;;;;;;;;;;13.60;99.90;;;;;;1828795;78;20219;-72
2021/10/26 10:58:22;;;;;;;;;;;13.50;99.90;;;;;;1834016;78;20192;-72
2021/10/26 11:00:49;;;;;;;;;;;13.50;99.90;;;;;;1830269;78;20103;-72
2021/10/26 11:03:21;;;;;;;;;;;13.50;99.90;;;;;;1831624;78;20186;-72
2021/10/26 11:05:47;;;;;;;;;;;13.60;99.90;;;;;;1826942;78;20255;-72
2021/10/26 11:08:15;;;;;;;;;;;13.50;99.90;;;;;;1831913;78;20444;-72
2021/10/26 11:10:53;;;;;;;;;;;13.50;99.90;;;;;;1829386;78;20471;-72
2021/10/26 11:13:21;;;;;;;;;;;13.50;99.90;;;;;;1833334;78;20503;-72
2021/10/26 11:15:49;;;;;;;;;;;13.60;99.90;;;;;;1833031;78;20459;-72
2021/10/26 11:18:35;;;;;;;;;;;13.60;99.90;;;;;;1831571;76;20180;-72
2021/10/26 11:21:02;;;;;;;;;;;13.60;99.90;;;;;;1834031;76;20383;-73
2021/10/26 11:23:33;;;;;;;;;;;13.70;99.90;;;;;;1834279;78;20257;-72
2021/10/26 11:26:01;;;;;;;;;;;13.70;99.90;;;;;;1827150;78;20462;-72
2021/10/26 11:28:30;;;;;;;;;;;13.70;99.90;;;;;;1831293;78;20180;-72
2021/10/26 11:30:59;;;;;;;;;;;13.70;99.90;;;;;;1834191;76;20216;-73
2021/10/26 11:33:32;;;;;;;;;;;13.70;99.90;;;;;;1832259;77;20187;-72
2021/10/26 11:36:04;;;;;;;;;;;13.70;99.90;;;;;;1828241;78;20128;-72
2021/10/26 11:38:31;;;;;;;;;;;13.70;99.90;;;;;;1830999;78;20291;-72
2021/10/26 11:41:08;;;;;;;;;;;13.80;99.90;;;;;;1830651;78;20161;-72
2021/10/26 11:43:45;;;;;;;;;;;13.80;99.90;;;;;;1833759;78;20158;-72
2021/10/26 11:46:13;;;;;;;;;;;13.80;99.90;;;;;;1831226;76;20451;-72
2021/10/26 11:48:42;;;;;;;;;;;13.80;99.90;;;;;;1832330;76;20194;-72
2021/10/26 11:51:22;;;;;;;;;;;13.90;99.90;;;;;;1832375;78;20178;-72
2021/10/26 11:53:51;;;;;;;;;;;14.00;99.90;;;;;;1830794;78;20192;-72
2021/10/26 11:56:22;;;;;;;;;;;14.00;99.90;;;;;;1828155;78;20276;-72
2021/10/26 11:58:56;;;;;;;;;;;14.10;99.90;;;;;;1833185;76;20183;-72
2021/10/26 12:01:24;;;;;;;;;;;14.00;99.90;;;;;;1830456;78;20181;-72
2021/10/26 12:03:51;;;;;;;;;;;14.20;99.90;;;;;;1824614;78;20253;-72
2021/10/26 12:06:31;;;;;;;;;;;14.10;99.90;;;;;;1833147;76;20222;-72
2021/10/26 12:08:59;;;;;;;;;;;14.10;99.90;;;;;;1832295;78;20180;-72
2021/10/26 12:11:31;;;;;;;;;;;14.10;99.90;;;;;;1830226;78;20182;-72
2021/10/26 12:14:11;;;;;;;;;;;14.10;99.90;;;;;;1832031;78;20381;-72
2021/10/26 12:16:38;;;;;;;;;;;14.20;99.90;;;;;;1827722;78;20477;-72
2021/10/26 12:19:05;;;;;;;;;;;14.20;99.90;;;;;;1832235;78;20162;-72
2021/10/26 12:21:32;;;;;;;;;;;14.30;99.90;;;;;;1832426;76;20496;-72
2021/10/26 12:23:59;;;;;;;;;;;14.40;99.90;;;;;;1834146;78;20113;-72
2021/10/26 12:26:26;;;;;;;;;;;14.40;99.90;;;;;;1829620;78;20237;-72
2021/10/26 12:28:56;;;;;;;;;;;14.50;99.90;;;;;;1830705;78;20217;-72
2021/10/26 12:31:28;;;;;;;;;;;14.50;99.90;;;;;;1831895;78;20290;-72
2021/10/26 12:34:04;;;;;;;;;;;14.40;99.90;;;;;;1828728;77;20184;-72
2021/10/26 12:36:28;;;;;;;;;;;14.50;99.90;;;;;;1836211;76;20465;-72
2021/10/26 12:38:57;;;;;;;;;;;14.50;99.90;;;;;;1832072;76;20661;-72
2021/10/26 12:41:28;;;;;;;;;;;14.50;99.90;;;;;;1836463;76;20181;-72
2021/10/26 12:44:00;;;;;;;;;;;14.30;99.90;;;;;;1831789;76;20456;-72
2021/10/26 12:46:27;;;;;;;;;;;14.30;99.90;;;;;;1831743;78;20119;-72
2021/10/26 12:49:13;;;;;;;;;;;14.30;99.90;;;;;;1830845;78;20176;-72
2021/10/26 12:51:40;;;;;;;;;;;14.30;99.90;;;;;;1829132;78;20521;-72
2021/10/26 12:54:16;;;;;;;;;;;14.30;99.90;;;;;;1831738;78;20661;-72
2021/10/26 12:56:54;;;;;;;;;;;14.30;99.90;;;;;;1833250;76;20128;-72
2021/10/26 12:59:18;;;;;;;;;;;14.30;99.90;;;;;;1827764;78;20203;-72
2021/10/26 13:01:50;;;;;;;;;;;14.20;99.90;;;;;;1832466;78;20197;-72
2021/10/26 13:04:24;;;;;;;;;;;14.30;99.90;;;;;;1833367;78;20232;-71
2021/10/26 13:06:53;;;;;;;;;;;14.20;99.90;;;;;;1830923;78;20166;-71
2021/10/26 13:09:25;;;;;;;;;;;14.30;99.90;;;;;;1833930;76;20162;-72
2021/10/26 13:11:53;;;;;;;;;;;14.30;99.90;;;;;;1826774;78;20160;-72
2021/10/26 13:14:20;;;;;;;;;;;14.30;99.90;;;;;;1817205;76;20127;-72
2021/10/26 13:16:48;;;;;;;;;;;14.30;99.90;;;;;;1833477;78;20221;-72
2021/10/26 13:19:19;;;;;;;;;;;14.30;99.90;;;;;;1833201;78;20187;-72
2021/10/26 13:21:52;;;;;;;;;;;14.40;99.90;;;;;;1831925;78;20236;-71
2021/10/26 13:24:22;;;;;;;;;;;14.40;99.90;;;;;;1831121;76;20432;-71
2021/10/26 13:26:49;;;;;;;;;;;14.30;99.90;;;;;;1828460;78;20232;-72
2021/10/26 13:29:16;;;;;;;;;;;14.30;99.90;;;;;;1832709;78;20178;-72
2021/10/26 13:31:43;;;;;;;;;;;14.30;99.90;;;;;;1837617;77;20176;-72
2021/10/26 13:34:11;;;;;;;;;;;14.30;99.90;;;;;;1836595;76;20169;-72
2021/10/26 13:36:38;;;;;;;;;;;14.30;99.90;;;;;;1832286;78;20206;-72
2021/10/26 13:39:07;;;;;;;;;;;14.30;99.90;;;;;;1828876;78;20235;-73
2021/10/26 13:41:44;;;;;;;;;;;14.30;99.90;;;;;;1833078;78;20502;-72
2021/10/26 13:44:11;;;;;;;;;;;14.20;99.90;;;;;;1833185;78;20232;-72
2021/10/26 13:46:38;;;;;;;;;;;14.30;99.90;;;;;;1832618;78;20164;-72
2021/10/26 13:49:06;;;;;;;;;;;14.20;99.90;;;;;;1835399;76;20486;-72
2021/10/26 13:51:33;;;;;;;;;;;14.30;99.90;;;;;;1832782;78;20131;-72
2021/10/26 13:54:01;;;;;;;;;;;14.20;99.90;;;;;;1835345;78;20225;-72
2021/10/26 13:56:27;;;;;;;;;;;14.30;99.90;;;;;;1830678;78;20205;-72
2021/10/26 13:58:54;;;;;;;;;;;14.30;99.90;;;;;;1834359;78;20393;-71
2021/10/26 14:01:21;;;;;;;;;;;14.30;99.90;;;;;;1835784;76;20217;-72
2021/10/26 14:03:49;;;;;;;;;;;14.20;99.90;;;;;;1833268;76;20251;-72
2021/10/26 14:06:16;;;;;;;;;;;14.20;99.90;;;;;;1832181;78;20214;-72
2021/10/26 14:08:44;;;;;;;;;;;14.30;99.90;;;;;;1832032;78;20223;-72
2021/10/26 14:11:11;;;;;;;;;;;14.30;99.90;;;;;;1840540;76;20217;-72
2021/10/26 14:13:40;;;;;;;;;;;14.20;99.90;;;;;;1831533;76;20162;-72
2021/10/26 14:16:08;;;;;;;;;;;14.20;99.90;;;;;;1835656;76;20203;-72
2021/10/26 14:18:35;;;;;;;;;;;14.20;99.90;;;;;;1831037;78;20176;-72
2021/10/26 14:21:05;;;;;;;;;;;14.10;99.90;;;;;;1831237;78;20179;-72
2021/10/26 14:23:31;;;;;;;;;;;14.10;99.90;;;;;;1831730;77;20159;-73
2021/10/26 14:25:58;;;;;;;;;;;14.10;99.90;;;;;;1833091;78;20191;-72
2021/10/26 14:28:26;;;;;;;;;;;14.10;99.90;;;;;;1837989;76;20477;-72